createdAt,value
2018-03-20T00:00:23.746Z,100894.87
2018-03-20T00:02:52.872Z,100898.61
2018-03-20T00:05:21.909Z,100902.36
2018-03-20T00:07:50.941Z,100894.86
2018-03-20T00:10:20.328Z,100894.87
2018-03-20T00:12:49.364Z,100904.03
2018-03-20T00:15:18.403Z,100897.36
2018-03-20T00:17:49.173Z,100904.45
2018-03-20T00:20:19.245Z,100904.86
2018-03-20T00:22:50.609Z,100906.55
2018-03-20T00:25:20.132Z,100901.14
2018-03-20T00:27:49.173Z,100895.30
2018-03-20T00:30:18.954Z,100897.80
2018-03-20T00:32:48.389Z,100895.73
2018-03-20T00:35:17.797Z,100894.90
2018-03-20T00:37:46.821Z,100902.39
2018-03-20T00:40:16.349Z,100894.89
2018-03-20T00:42:46.620Z,100897.41
2018-03-20T00:45:15.855Z,100901.16
2018-03-20T00:47:46.075Z,100901.13
2018-03-20T00:50:15.160Z,100892.84
2018-03-20T00:52:45.408Z,100890.75
2018-03-20T00:55:14.503Z,100886.56
2018-03-20T00:57:43.528Z,100890.33
2018-03-20T01:00:14.077Z,100882.83
2018-03-20T01:02:43.336Z,100887.00
2018-03-20T01:05:13.549Z,100882.02
2018-03-20T01:07:42.933Z,100879.09
2018-03-20T01:10:12.022Z,100876.59
2018-03-20T01:12:41.460Z,100870.78
2018-03-20T01:15:10.823Z,100869.11
2018-03-20T01:17:39.860Z,100862.86
2018-03-20T01:20:08.885Z,100860.37
2018-03-20T01:22:38.592Z,100859.14
2018-03-20T01:25:07.624Z,100857.87
2018-03-20T01:27:36.789Z,100851.23
2018-03-20T01:30:06.572Z,100852.88
2018-03-20T01:32:35.972Z,100851.64
2018-03-20T01:35:05.005Z,100847.47
2018-03-20T01:37:34.817Z,100844.16
2018-03-20T01:40:05.543Z,100843.33
2018-03-20T01:42:34.587Z,100841.65
2018-03-20T01:45:04.101Z,100842.08
2018-03-20T01:47:33.550Z,100837.09
2018-03-20T01:50:02.592Z,100839.16
2018-03-20T01:52:31.803Z,100837.50
2018-03-20T01:55:01.524Z,100834.58
2018-03-20T01:57:30.977Z,100833.75
2018-03-20T02:00:00.009Z,100832.48
2018-03-20T02:02:29.291Z,100831.24
2018-03-20T02:04:59.377Z,100823.76
2018-03-20T02:07:28.416Z,100823.36
2018-03-20T02:09:58.648Z,100822.92
2018-03-20T02:12:27.679Z,100823.78
2018-03-20T02:14:56.708Z,100827.11
2018-03-20T02:17:25.737Z,100828.34
2018-03-20T02:19:54.774Z,100825.00
2018-03-20T02:22:24.267Z,100817.55
2018-03-20T02:24:53.853Z,100810.05
2018-03-20T02:27:23.688Z,100801.72
2018-03-20T02:29:53.967Z,100800.90
2018-03-20T02:32:23.020Z,100801.72
2018-03-20T02:34:52.068Z,100796.72
2018-03-20T02:37:21.437Z,100807.14
2018-03-20T02:39:50.932Z,100806.31
2018-03-20T02:42:20.000Z,100804.64
2018-03-20T02:44:49.033Z,100804.63
2018-03-20T02:47:18.065Z,100805.89
2018-03-20T02:49:47.383Z,100805.48
2018-03-20T02:52:20.645Z,100807.98
2018-03-20T02:54:51.945Z,100806.73
2018-03-20T02:57:21.298Z,100807.16
2018-03-20T02:59:51.503Z,100805.48
2018-03-20T03:02:21.668Z,100803.82
2018-03-20T03:04:52.885Z,100803.80
2018-03-20T03:07:24.311Z,100793.84
2018-03-20T03:09:53.864Z,100797.17
2018-03-20T03:12:23.471Z,100805.88
2018-03-20T03:14:53.615Z,100803.82
2018-03-20T03:17:22.744Z,100805.06
2018-03-20T03:19:53.047Z,100797.16
2018-03-20T03:22:22.093Z,100794.23
2018-03-20T03:24:52.331Z,100792.59
2018-03-20T03:27:21.935Z,100801.30
2018-03-20T03:29:51.776Z,100794.66
2018-03-20T03:32:21.466Z,100795.06
2018-03-20T03:34:50.854Z,100799.64
2018-03-20T03:37:20.329Z,100796.72
2018-03-20T03:39:49.357Z,100805.05
2018-03-20T03:42:19.295Z,100805.88
2018-03-20T03:44:48.619Z,100802.95
2018-03-20T03:47:17.646Z,100804.22
2018-03-20T03:49:46.970Z,100810.88
2018-03-20T03:52:16.265Z,100800.47
2018-03-20T03:54:45.865Z,100805.05
2018-03-20T03:57:15.253Z,100809.19
2018-03-20T03:59:44.302Z,100812.54
2018-03-20T04:02:13.330Z,100806.30
2018-03-20T04:04:42.861Z,100810.88
2018-03-20T04:07:11.887Z,100813.37
2018-03-20T04:09:41.156Z,100811.28
2018-03-20T04:12:10.638Z,100819.61
2018-03-20T04:14:40.007Z,100816.27
2018-03-20T04:17:09.450Z,100815.88
2018-03-20T04:19:39.134Z,100814.60
2018-03-20T04:22:08.852Z,100809.20
2018-03-20T04:24:37.976Z,100812.52
2018-03-20T04:27:07.556Z,100811.28
2018-03-20T04:29:36.656Z,100820.43
2018-03-20T04:32:05.845Z,100810.45
2018-03-20T04:34:34.874Z,100814.59
2018-03-20T04:37:04.199Z,100817.09
2018-03-20T04:39:33.260Z,100816.69
2018-03-20T04:42:02.409Z,100816.67
2018-03-20T04:44:31.427Z,100822.48
2018-03-20T04:47:00.880Z,100815.00
2018-03-20T04:49:29.959Z,100819.16
2018-03-20T04:51:58.998Z,100818.31
2018-03-20T04:54:28.026Z,100822.08
2018-03-20T04:56:57.595Z,100826.22
2018-03-20T04:59:26.653Z,100825.81
2018-03-20T05:01:55.695Z,100827.06
2018-03-20T05:04:25.014Z,100828.31
2018-03-20T05:06:54.690Z,100821.63
2018-03-20T05:09:23.766Z,100820.80
2018-03-20T05:11:53.237Z,100829.54
2018-03-20T05:14:22.498Z,100824.13
2018-03-20T05:16:51.983Z,100822.03
2018-03-20T05:19:26.619Z,100831.18
2018-03-20T05:25:02.153Z,100837.86
2018-03-20T05:27:31.793Z,100834.94
2018-03-20T05:30:00.833Z,100838.66
2018-03-20T05:32:30.768Z,100843.25
2018-03-20T05:35:00.448Z,100844.91
2018-03-20T05:37:29.560Z,100847.02
2018-03-20T05:39:58.604Z,100854.10
2018-03-20T05:42:27.655Z,100852.02
2018-03-20T05:44:57.669Z,100852.86
2018-03-20T05:47:32.549Z,100856.60
2018-03-20T05:50:07.240Z,100862.02
2018-03-20T05:52:36.380Z,100862.42
2018-03-20T05:55:06.466Z,100859.07
2018-03-20T05:57:36.213Z,100863.63
2018-03-20T06:00:06.752Z,100867.37
2018-03-20T06:02:35.790Z,100868.63
2018-03-20T06:05:04.823Z,100867.35
2018-03-20T06:07:34.758Z,100871.51
2018-03-20T06:10:04.393Z,100871.90
2018-03-20T06:12:34.029Z,100874.37
2018-03-20T06:15:03.514Z,100873.95
2018-03-20T06:17:32.994Z,100872.70
2018-03-20T06:20:02.712Z,100876.00
2018-03-20T06:22:32.133Z,100884.73
2018-03-20T06:25:01.863Z,100886.77
2018-03-20T06:27:31.577Z,100891.34
2018-03-20T06:30:00.638Z,100890.91
2018-03-20T06:32:31.497Z,100893.83
2018-03-20T06:35:01.238Z,100890.48
2018-03-20T06:37:30.268Z,100897.54
2018-03-20T06:39:59.452Z,100895.44
2018-03-20T06:42:28.575Z,100903.76
2018-03-20T06:44:58.647Z,100910.43
2018-03-20T06:47:28.429Z,100906.27
2018-03-20T06:49:57.604Z,100913.36
2018-03-20T06:52:26.690Z,100912.50
2018-03-20T06:54:56.479Z,100913.75
2018-03-20T06:57:26.797Z,100912.91
2018-03-20T06:59:56.964Z,100922.47
2018-03-20T07:02:26.397Z,100925.81
2018-03-20T07:04:55.756Z,100924.98
2018-03-20T07:07:24.862Z,100934.58
2018-03-20T07:09:54.970Z,100930.80
2018-03-20T07:12:24.260Z,100932.48
2018-03-20T07:14:54.131Z,100937.44
2018-03-20T07:17:23.778Z,100940.76
2018-03-20T07:19:53.269Z,100944.92
2018-03-20T07:22:23.150Z,100958.24
2018-03-20T07:24:53.511Z,100954.91
2018-03-20T07:27:23.742Z,100958.66
2018-03-20T07:29:52.883Z,100964.50
2018-03-20T07:32:23.058Z,100964.53
2018-03-20T07:34:52.234Z,100972.01
2018-03-20T07:37:21.275Z,100974.92
2018-03-20T07:39:50.867Z,100969.11
2018-03-20T07:42:19.991Z,100973.27
2018-03-20T07:44:49.630Z,100973.66
2018-03-20T07:47:19.879Z,100977.00
2018-03-20T07:49:50.160Z,100972.84
2018-03-20T07:52:19.201Z,100975.31
2018-03-20T07:54:48.254Z,100976.55
2018-03-20T07:57:18.305Z,100976.11
2018-03-20T07:59:48.670Z,100974.84
2018-03-20T08:02:18.783Z,100981.90
2018-03-20T08:04:47.968Z,100985.20
2018-03-20T08:07:17.124Z,100979.72
2018-03-20T08:09:47.368Z,100980.16
2018-03-20T08:12:16.420Z,100991.03
2018-03-20T08:14:45.627Z,100994.40
2018-03-20T08:17:14.781Z,100993.55
2018-03-20T08:19:44.051Z,100993.98
2018-03-20T08:22:13.490Z,100998.99
2018-03-20T08:24:44.302Z,100992.28
2018-03-20T08:27:13.426Z,100998.17
2018-03-20T08:29:43.346Z,100994.41
2018-03-20T08:32:12.774Z,100997.78
2018-03-20T08:34:41.910Z,101001.09
2018-03-20T08:37:11.354Z,101003.99
2018-03-20T08:39:40.538Z,101002.72
2018-03-20T08:42:09.749Z,101005.19
2018-03-20T08:44:38.824Z,101010.55
2018-03-20T08:47:08.101Z,101007.60
2018-03-20T08:49:37.950Z,101011.76
2018-03-20T08:52:07.016Z,101013.42
2018-03-20T08:54:36.087Z,101014.66
2018-03-20T08:57:05.202Z,101021.34
2018-03-20T08:59:34.247Z,101022.55
2018-03-20T09:02:03.293Z,101029.55
2018-03-20T09:04:32.337Z,101030.75
2018-03-20T09:07:02.949Z,101029.47
2018-03-20T09:09:32.476Z,101031.03
2018-03-20T09:12:02.110Z,101035.95
2018-03-20T09:14:31.155Z,101035.32
2018-03-20T09:17:00.809Z,101039.33
2018-03-20T09:19:29.906Z,101041.34
2018-03-20T09:21:59.846Z,101037.44
2018-03-20T09:24:29.230Z,101052.92
2018-03-20T09:26:58.567Z,101052.61
2018-03-20T09:29:28.165Z,101053.87
2018-03-20T09:31:57.203Z,101056.65
2018-03-20T09:34:26.682Z,101063.69
2018-03-20T09:36:55.725Z,101058.92
2018-03-20T09:39:25.147Z,101052.02
2018-03-20T09:41:55.851Z,101063.56
2018-03-20T09:44:26.019Z,101068.03
2018-03-20T09:46:55.149Z,101067.05
2018-03-20T09:49:24.181Z,101069.79
2018-03-20T09:51:53.657Z,101075.11
2018-03-20T09:54:22.697Z,101074.13
2018-03-20T09:56:51.970Z,101078.17
2018-03-20T09:59:21.287Z,101076.72
2018-03-20T10:01:50.849Z,101084.05
2018-03-20T10:04:19.885Z,101085.03
2018-03-20T10:06:48.931Z,101089.67
2018-03-20T10:09:19.527Z,101090.96
2018-03-20T10:11:48.659Z,101093.47
2018-03-20T10:14:18.356Z,101096.40
2018-03-20T10:16:47.742Z,101100.02
2018-03-20T10:19:17.505Z,101100.96
2018-03-20T10:21:46.812Z,101100.25
2018-03-20T10:24:16.247Z,101103.94
2018-03-20T10:26:45.274Z,101102.67
2018-03-20T10:29:14.670Z,101113.56
2018-03-20T10:31:44.102Z,101110.30
2018-03-20T10:34:13.354Z,101114.58
2018-03-20T10:36:42.483Z,101108.70
2018-03-20T10:39:12.205Z,101109.05
2018-03-20T10:41:42.298Z,101111.42
2018-03-20T10:44:11.864Z,101105.38
2018-03-20T10:46:40.976Z,101113.70
2018-03-20T10:49:10.262Z,101120.17
2018-03-20T10:51:39.676Z,101116.62
2018-03-20T10:54:08.719Z,101119.27
2018-03-20T10:56:38.193Z,101123.46
2018-03-20T10:59:08.650Z,101122.66
2018-03-20T11:01:43.823Z,101130.20
2018-03-20T11:04:13.182Z,101135.22
2018-03-20T11:06:42.230Z,101138.03
2018-03-20T11:09:11.335Z,101145.86
2018-03-20T11:11:40.504Z,101139.41
2018-03-20T11:14:09.832Z,101147.14
2018-03-20T11:16:38.867Z,101148.38
2018-03-20T11:19:08.363Z,101147.48
2018-03-20T11:21:37.769Z,101161.43
2018-03-20T11:24:06.844Z,101162.36
2018-03-20T11:26:38.228Z,101167.77
2018-03-20T11:29:07.516Z,101161.61
2018-03-20T11:31:36.722Z,101163.00
2018-03-20T11:34:05.806Z,101165.94
2018-03-20T11:36:35.886Z,101169.20
2018-03-20T11:39:05.379Z,101171.17
2018-03-20T11:41:34.611Z,101171.95
2018-03-20T11:44:04.129Z,101177.69
2018-03-20T11:46:33.519Z,101183.00
2018-03-20T11:49:04.720Z,101182.02
2018-03-20T11:51:33.875Z,101186.91
2018-03-20T11:54:02.895Z,101187.23
2018-03-20T11:56:31.961Z,101193.42
2018-03-20T11:59:01.202Z,101192.95
2018-03-20T12:01:30.273Z,101198.72
2018-03-20T12:04:00.768Z,101207.11
2018-03-20T12:06:29.791Z,101202.00
2018-03-20T12:09:10.549Z,101211.76
2018-03-20T12:11:39.640Z,101219.81
2018-03-20T12:14:09.613Z,101221.16
2018-03-20T12:16:38.877Z,101226.69
2018-03-20T12:19:08.650Z,101223.72
2018-03-20T12:21:37.818Z,101228.23
2018-03-20T12:24:06.918Z,101229.83
2018-03-20T12:26:36.355Z,101235.23
2018-03-20T12:29:05.388Z,101244.59
2018-03-20T12:31:34.515Z,101245.61
2018-03-20T12:34:03.615Z,101259.98
2018-03-20T12:36:32.690Z,101250.11
2018-03-20T12:39:02.263Z,101263.13
2018-03-20T12:41:31.600Z,101263.97
2018-03-20T12:44:00.695Z,101268.66
2018-03-20T12:46:29.748Z,101274.94
2018-03-20T12:48:58.820Z,101274.94
2018-03-20T12:51:27.878Z,101280.38
2018-03-20T12:53:57.007Z,101279.58
2018-03-20T12:56:26.391Z,101283.77
2018-03-20T12:58:55.428Z,101279.12
2018-03-20T13:01:25.223Z,101282.48
2018-03-20T13:03:54.253Z,101288.73
2018-03-20T13:06:23.795Z,101290.33
2018-03-20T13:08:53.255Z,101292.00
2018-03-20T13:11:23.360Z,101288.69
2018-03-20T13:13:52.678Z,101294.66
2018-03-20T13:16:21.756Z,101299.78
2018-03-20T13:18:51.563Z,101301.06
2018-03-20T13:21:21.280Z,101309.89
2018-03-20T13:23:50.363Z,101314.44
2018-03-20T13:26:20.166Z,101316.12
2018-03-20T13:28:49.202Z,101324.46
2018-03-20T13:31:18.734Z,101319.34
2018-03-20T13:33:47.898Z,101325.88
2018-03-20T13:36:16.979Z,101324.41
2018-03-20T13:38:46.422Z,101330.16
2018-03-20T13:41:15.845Z,101329.67
2018-03-20T13:43:45.752Z,101334.66
2018-03-20T13:46:14.934Z,101336.88
2018-03-20T13:48:43.971Z,101340.41
2018-03-20T13:51:14.006Z,101352.77
2018-03-20T13:53:43.178Z,101367.24
2018-03-20T13:56:12.295Z,101367.88
2018-03-20T13:58:41.361Z,101376.39
2018-03-20T14:01:10.365Z,101372.30
2018-03-20T14:03:39.629Z,101371.47
2018-03-20T14:06:08.763Z,101376.91
2018-03-20T14:08:37.815Z,101377.31
2018-03-20T14:11:06.838Z,101381.04
2018-03-20T14:13:35.939Z,101381.84
2018-03-20T14:16:05.638Z,101387.66
2018-03-20T14:18:34.953Z,101397.28
2018-03-20T14:21:04.042Z,101404.00
2018-03-20T14:23:33.934Z,101401.91
2018-03-20T14:26:03.372Z,101406.09
2018-03-20T14:28:32.355Z,101411.95
2018-03-20T14:31:01.403Z,101407.35
2018-03-20T14:33:30.446Z,101414.02
2018-03-20T14:35:59.486Z,101421.59
2018-03-20T14:38:28.526Z,101425.78
2018-03-20T14:40:57.641Z,101426.63
2018-03-20T14:43:26.679Z,101434.13
2018-03-20T14:45:55.722Z,101439.14
2018-03-20T14:48:24.809Z,101432.89
2018-03-20T14:50:53.991Z,101446.30
2018-03-20T14:53:23.001Z,101455.91
2018-03-20T14:55:52.118Z,101460.53
2018-03-20T14:58:21.157Z,101459.26
2018-03-20T15:00:50.808Z,101461.77
2018-03-20T15:03:19.948Z,101469.72
2018-03-20T15:05:48.981Z,101472.20
2018-03-20T15:08:18.242Z,101469.70
2018-03-20T15:10:47.828Z,101480.58
2018-03-20T15:13:16.909Z,101487.69
2018-03-20T15:15:45.949Z,101488.55
2018-03-20T15:18:14.993Z,101502.41
2018-03-20T15:20:44.019Z,101494.89
2018-03-20T15:23:13.059Z,101505.36
2018-03-20T15:25:42.104Z,101508.72
2018-03-20T15:28:11.210Z,101522.50
2018-03-20T15:30:40.755Z,101522.52
2018-03-20T15:33:10.538Z,101527.13
2018-03-20T15:35:39.568Z,101528.79
2018-03-20T15:38:09.301Z,101531.30
2018-03-20T15:40:38.327Z,101532.56
2018-03-20T15:43:08.229Z,101542.17
2018-03-20T15:45:37.491Z,101543.84
2018-03-20T15:48:06.926Z,101553.91
2018-03-20T15:50:36.215Z,101552.21
2018-03-20T15:53:05.287Z,101561.44
2018-03-20T15:55:35.191Z,101567.69
2018-03-20T15:58:04.347Z,101568.53
2018-03-20T16:00:34.505Z,101580.66
2018-03-20T16:03:03.985Z,101579.81
2018-03-20T16:05:33.370Z,101579.41
2018-03-20T16:08:02.500Z,101590.69
2018-03-20T16:10:33.340Z,101587.33
2018-03-20T16:13:02.849Z,101594.03
2018-03-20T16:15:32.248Z,101588.62
2018-03-20T16:18:01.819Z,101593.20
2018-03-20T16:20:31.083Z,101600.31
2018-03-20T16:23:00.192Z,101598.63
2018-03-20T16:25:29.429Z,101608.66
2018-03-20T16:27:58.705Z,101607.41
2018-03-20T16:30:28.837Z,101620.36
2018-03-20T16:32:58.374Z,101618.70
2018-03-20T16:35:27.416Z,101633.31
2018-03-20T16:37:56.647Z,101635.41
2018-03-20T16:40:25.857Z,101638.33
2018-03-20T16:42:55.659Z,101644.16
2018-03-20T16:45:24.782Z,101645.41
2018-03-20T16:47:53.889Z,101647.48
2018-03-20T16:50:23.106Z,101654.59
2018-03-20T16:52:52.158Z,101667.11
2018-03-20T16:55:21.675Z,101663.37
2018-03-20T16:57:50.846Z,101670.06
2018-03-20T17:02:53.812Z,101685.92
2018-03-20T17:05:23.005Z,101693.86
2018-03-20T17:07:52.900Z,101697.21
2018-03-20T17:10:22.290Z,101700.98
2018-03-20T17:12:51.407Z,101712.23
2018-03-20T17:15:21.142Z,101718.48
2018-03-20T17:17:50.470Z,101726.03
2018-03-20T17:20:19.633Z,101726.01
2018-03-20T17:22:49.991Z,101738.55
2018-03-20T17:25:19.435Z,101733.51
2018-03-20T17:27:48.501Z,101739.37
2018-03-20T17:30:17.572Z,101741.45
2018-03-20T17:32:47.006Z,101744.38
2018-03-20T17:35:18.195Z,101749.39
2018-03-20T17:37:47.426Z,101753.98
2018-03-20T17:40:16.461Z,101751.91
2018-03-20T17:42:46.089Z,101756.06
2018-03-20T17:45:15.121Z,101754.81
2018-03-20T17:47:44.165Z,101767.34
2018-03-20T17:50:13.317Z,101772.80
2018-03-20T17:52:42.389Z,101773.63
2018-03-20T17:55:11.694Z,101779.46
2018-03-20T17:57:41.284Z,101780.72
2018-03-20T18:00:10.703Z,101782.39
2018-03-20T18:02:40.036Z,101784.89
2018-03-20T18:05:09.455Z,101797.41
2018-03-20T18:07:38.777Z,101794.47
2018-03-20T18:10:07.928Z,101801.16
2018-03-20T18:12:37.013Z,101800.32
2018-03-20T18:15:06.140Z,101805.32
2018-03-20T18:17:35.548Z,101808.68
2018-03-20T18:20:04.822Z,101820.78
2018-03-20T18:22:34.845Z,101815.33
2018-03-20T18:25:03.987Z,101824.09
2018-03-20T18:27:33.366Z,101826.20
2018-03-20T18:30:02.482Z,101828.69
2018-03-20T18:32:32.174Z,101836.21
2018-03-20T18:35:01.356Z,101838.70
2018-03-20T18:37:30.729Z,101839.96
2018-03-20T18:40:00.138Z,101844.55
2018-03-20T18:42:29.172Z,101850.37
2018-03-20T18:44:58.211Z,101852.45
2018-03-20T18:47:27.291Z,101855.75
2018-03-20T18:49:56.333Z,101864.08
2018-03-20T18:52:25.376Z,101861.98
2018-03-20T18:54:54.417Z,101863.23
2018-03-20T18:57:23.478Z,101869.88
2018-03-20T18:59:52.819Z,101877.33
2018-03-20T19:02:21.882Z,101883.13
2018-03-20T19:04:50.988Z,101874.34
2018-03-20T19:07:20.027Z,101886.00
2018-03-20T19:09:49.095Z,101889.73
2018-03-20T19:12:18.476Z,101899.70
2018-03-20T19:14:47.507Z,101896.39
2018-03-20T19:17:16.552Z,101901.37
2018-03-20T19:19:45.593Z,101895.16
2018-03-20T19:22:14.590Z,101898.92
2018-03-20T19:24:43.895Z,101907.66
2018-03-20T19:27:12.949Z,101915.16
2018-03-20T19:29:42.364Z,101910.48
2018-03-20T19:32:12.069Z,101930.54
2018-03-20T19:34:41.131Z,101932.98
2018-03-20T19:37:18.039Z,101935.91
2018-03-20T19:39:47.124Z,101939.26
2018-03-20T19:42:16.200Z,101935.95
2018-03-20T19:44:45.630Z,101948.11
2018-03-20T19:47:14.718Z,101943.93
2018-03-20T19:49:43.783Z,101943.91
2018-03-20T19:52:12.841Z,101949.75
2018-03-20T19:54:41.988Z,101949.34
2018-03-20T19:57:11.928Z,101952.70
2018-03-20T19:59:41.010Z,101967.28
2018-03-20T20:02:10.057Z,101971.49
2018-03-20T20:04:39.116Z,101966.03
2018-03-20T20:07:08.163Z,101976.03
2018-03-20T20:09:37.198Z,101985.58
2018-03-20T20:12:06.398Z,101979.75
2018-03-20T20:14:35.476Z,101986.41
2018-03-20T20:17:04.704Z,101983.45
2018-03-20T20:19:33.992Z,101981.80
2018-03-20T20:22:03.073Z,101982.22
2018-03-20T20:24:32.848Z,101980.13
2018-03-20T20:27:04.686Z,101985.98
2018-03-20T20:29:34.749Z,101991.05
2018-03-20T20:32:04.038Z,101994.30
2018-03-20T20:34:36.006Z,101996.41
2018-03-20T20:37:05.233Z,101992.55
2018-03-20T20:39:34.295Z,101995.36
2018-03-20T20:42:03.429Z,102002.83
2018-03-20T20:44:32.530Z,102003.61
2018-03-20T20:47:01.613Z,102005.29
2018-03-20T20:49:30.878Z,102008.17
2018-03-20T20:51:59.923Z,102008.52
2018-03-20T20:54:29.132Z,102012.66
2018-03-20T20:56:58.526Z,102015.12
2018-03-20T20:59:27.613Z,102014.69
2018-03-20T21:01:57.357Z,102016.75
2018-03-20T21:04:26.398Z,102010.52
2018-03-20T21:06:55.833Z,102014.31
2018-03-20T21:09:24.869Z,102020.96
2018-03-20T21:11:53.949Z,102023.08
2018-03-20T21:14:46.426Z,102017.22
2018-03-20T21:17:15.501Z,102023.94
2018-03-20T21:19:44.567Z,102021.42
2018-03-20T21:22:14.477Z,102021.03
2018-03-20T21:24:44.753Z,102018.14
2018-03-20T21:27:14.008Z,102024.02
2018-03-20T21:29:44.200Z,102013.97
2018-03-20T21:32:14.977Z,102018.58
2018-03-20T21:34:45.384Z,102019.42
2018-03-20T21:37:16.705Z,102017.75
2018-03-20T21:39:47.601Z,102021.94
2018-03-20T21:42:20.528Z,102028.64
2018-03-20T21:44:49.693Z,102022.77
2018-03-20T21:47:18.795Z,102021.52
2018-03-20T21:49:48.206Z,102020.70
2018-03-20T21:52:17.432Z,102024.85
2018-03-20T21:54:46.504Z,102024.41
2018-03-20T21:57:16.378Z,102024.81
2018-03-20T21:59:45.849Z,102026.91
2018-03-20T22:02:15.704Z,102022.72
2018-03-20T22:04:49.508Z,102027.77
2018-03-20T22:07:21.567Z,102029.86
2018-03-20T22:09:50.745Z,102031.11
2018-03-20T22:12:22.636Z,102027.77
2018-03-20T22:14:52.248Z,102030.23
2018-03-20T22:17:22.540Z,102035.61
2018-03-20T22:19:52.478Z,102033.91
2018-03-20T22:22:23.448Z,102035.58
2018-03-20T22:24:53.916Z,102033.43
2018-03-20T22:27:24.204Z,102029.64
2018-03-20T22:29:54.250Z,102032.50
2018-03-20T22:32:26.212Z,102034.92
2018-03-20T22:34:57.175Z,102039.91
2018-03-20T22:37:27.693Z,102037.78
2018-03-20T22:39:59.941Z,102033.20
2018-03-20T22:42:30.292Z,102034.83
2018-03-20T22:45:01.052Z,102041.04
2018-03-20T22:47:30.341Z,102036.02
2018-03-20T22:50:03.553Z,102046.00
2018-03-20T22:52:33.926Z,102044.34
2018-03-20T22:55:03.990Z,102039.34
2018-03-20T22:57:35.072Z,102041.46
2018-03-20T23:00:04.116Z,102045.64
2018-03-20T23:02:33.207Z,102046.02
2018-03-20T23:05:02.569Z,102053.45
2018-03-20T23:07:31.709Z,102057.17
2018-03-20T23:10:00.826Z,102056.70
2018-03-20T23:12:29.937Z,102058.34
2018-03-20T23:14:59.027Z,102058.27
2018-03-20T23:17:28.141Z,102057.81
2018-03-20T23:19:57.829Z,102058.58
2018-03-20T23:22:27.290Z,102066.86
2018-03-20T23:24:56.511Z,102065.14
2018-03-20T23:27:26.238Z,102065.94
2018-03-20T23:29:56.223Z,102065.88
2018-03-20T23:32:25.678Z,102067.08
2018-03-20T23:34:54.786Z,102070.39
2018-03-20T23:37:23.984Z,102065.77
2018-03-20T23:39:53.134Z,102074.92
2018-03-20T23:42:22.291Z,102067.37
2018-03-20T23:44:51.393Z,102072.38
2018-03-20T23:47:20.905Z,102072.33
2018-03-20T23:49:50.015Z,102077.69
2018-03-20T23:52:19.468Z,102075.19
2018-03-20T23:54:48.588Z,102076.80
2018-03-20T23:57:17.689Z,102081.37
2018-03-20T23:59:46.912Z,102077.20
